createdAt,value
2023-01-30T00:00:09.953Z,36.96
2023-01-30T00:02:37.438Z,36.35
2023-01-30T00:05:04.781Z,36.60
2023-01-30T00:07:31.976Z,36.59
2023-01-30T00:09:59.504Z,36.70
2023-01-30T00:12:26.656Z,36.80
2023-01-30T00:14:53.815Z,36.78
2023-01-30T00:17:21.286Z,36.91
2023-01-30T00:19:48.447Z,36.21
2023-01-30T00:22:15.580Z,36.57
2023-01-30T00:24:43.109Z,36.65
2023-01-30T00:27:10.346Z,37.05
2023-01-30T00:29:37.544Z,37.04
2023-01-30T00:32:05.028Z,37.09
2023-01-30T00:34:32.213Z,37.48
2023-01-30T00:37:08.252Z,38.41
2023-01-30T00:39:36.087Z,37.71
2023-01-30T00:42:21.961Z,37.79
2023-01-30T00:45:08.136Z,37.61
2023-01-30T00:47:35.296Z,37.65
2023-01-30T00:50:03.267Z,36.97
2023-01-30T00:52:30.415Z,38.46
2023-01-30T00:54:57.581Z,38.17
2023-01-30T00:57:25.208Z,37.94
2023-01-30T00:59:52.362Z,38.38
2023-01-30T01:02:19.535Z,38.90
2023-01-30T01:04:46.960Z,38.26
2023-01-30T01:07:14.457Z,38.42
2023-01-30T01:09:42.028Z,38.15
2023-01-30T01:12:09.461Z,37.77
2023-01-30T01:14:37.625Z,37.25
2023-01-30T01:17:05.171Z,38.06
2023-01-30T01:19:32.607Z,37.89
2023-01-30T01:21:59.879Z,37.33
2023-01-30T01:24:27.911Z,37.69
2023-01-30T01:26:55.328Z,38.00
2023-01-30T01:29:22.492Z,37.80
2023-01-30T01:31:50.656Z,37.56
2023-01-30T01:34:18.134Z,37.83
2023-01-30T01:36:54.051Z,37.62
2023-01-30T01:39:22.344Z,37.77
2023-01-30T01:41:50.566Z,38.09
2023-01-30T01:44:17.779Z,37.94
2023-01-30T01:46:47.454Z,37.39
2023-01-30T01:49:14.574Z,37.88
2023-01-30T01:51:43.001Z,37.75
2023-01-30T01:54:11.831Z,37.49
2023-01-30T01:56:42.956Z,37.45
2023-01-30T01:59:21.639Z,37.67
2023-01-30T02:01:48.834Z,37.66
2023-01-30T02:04:36.219Z,37.86
2023-01-30T02:07:03.353Z,38.08
2023-01-30T02:09:30.824Z,37.31
2023-01-30T02:11:58.934Z,37.78
2023-01-30T02:14:28.662Z,37.64
2023-01-30T02:16:55.819Z,37.44
2023-01-30T02:19:24.848Z,37.62
2023-01-30T02:22:10.886Z,37.74
2023-01-30T02:24:47.617Z,37.93
2023-01-30T02:27:30.464Z,37.33
2023-01-30T02:29:57.946Z,37.93
2023-01-30T02:32:36.608Z,38.06
2023-01-30T02:35:24.923Z,38.39
2023-01-30T02:37:52.103Z,38.09
2023-01-30T02:40:19.571Z,37.70
2023-01-30T02:43:15.622Z,38.11
2023-01-30T02:46:12.779Z,37.88
2023-01-30T02:49:00.165Z,37.86
2023-01-30T02:51:30.704Z,37.58
2023-01-30T02:53:57.931Z,37.90
2023-01-30T02:56:25.601Z,37.50
2023-01-30T02:58:57.808Z,37.61
2023-01-30T03:01:28.155Z,37.69
2023-01-30T03:04:05.487Z,37.08
2023-01-30T03:07:02.860Z,37.77
2023-01-30T03:09:52.489Z,37.81
2023-01-30T03:12:41.096Z,37.48
2023-01-30T03:15:08.548Z,37.38
2023-01-30T03:17:35.726Z,37.40
2023-01-30T03:20:03.268Z,37.24
2023-01-30T03:22:30.725Z,37.71
2023-01-30T03:24:57.888Z,37.46
2023-01-30T03:27:25.084Z,37.14
2023-01-30T03:29:52.857Z,37.42
2023-01-30T03:32:20.811Z,37.53
2023-01-30T03:34:48.018Z,37.50
2023-01-30T03:37:15.483Z,37.75
2023-01-30T03:39:42.915Z,37.79
2023-01-30T03:42:10.850Z,37.66
2023-01-30T03:44:38.366Z,37.72
2023-01-30T03:47:06.548Z,37.39
2023-01-30T03:49:33.775Z,37.62
2023-01-30T03:52:01.269Z,37.76
2023-01-30T03:54:29.766Z,37.54
2023-01-30T03:56:56.950Z,37.73
2023-01-30T03:59:24.490Z,37.77
2023-01-30T04:01:52.044Z,38.10
2023-01-30T04:04:19.582Z,37.53
2023-01-30T04:06:46.839Z,37.51
2023-01-30T04:09:14.101Z,37.34
2023-01-30T04:11:59.845Z,37.18
2023-01-30T04:14:27.952Z,37.36
2023-01-30T04:17:03.348Z,37.46
2023-01-30T04:19:31.387Z,37.77
2023-01-30T04:21:58.974Z,37.62
2023-01-30T04:24:26.430Z,37.43
2023-01-30T04:26:53.953Z,37.94
2023-01-30T04:29:21.333Z,38.01
2023-01-30T04:31:49.290Z,37.71
2023-01-30T04:34:16.975Z,37.74
2023-01-30T04:36:44.251Z,38.85
2023-01-30T04:39:11.979Z,38.85
2023-01-30T04:41:40.259Z,38.71
2023-01-30T04:44:07.451Z,38.67
2023-01-30T04:46:35.419Z,38.49
2023-01-30T04:49:03.330Z,38.19
2023-01-30T04:51:30.642Z,38.25
2023-01-30T04:53:57.891Z,38.16
2023-01-30T04:56:25.393Z,37.70
2023-01-30T04:58:53.077Z,37.63
2023-01-30T05:01:23.422Z,37.63
2023-01-30T05:03:51.834Z,37.82
2023-01-30T05:06:20.107Z,38.02
2023-01-30T05:08:50.547Z,38.14
2023-01-30T05:11:18.298Z,38.32
2023-01-30T05:13:45.697Z,38.17
2023-01-30T05:16:13.886Z,38.07
2023-01-30T05:18:41.481Z,38.06
2023-01-30T05:21:09.630Z,37.53
2023-01-30T05:23:36.849Z,37.91
2023-01-30T05:26:04.571Z,38.25
2023-01-30T05:28:31.895Z,38.52
2023-01-30T05:31:05.996Z,38.29
2023-01-30T05:33:33.557Z,37.87
2023-01-30T05:36:00.728Z,37.43
2023-01-30T05:38:28.238Z,37.50
2023-01-30T05:41:02.685Z,37.50
2023-01-30T05:43:30.054Z,37.95
2023-01-30T05:45:58.166Z,37.58
2023-01-30T05:48:25.520Z,37.90
2023-01-30T05:50:53.033Z,37.74
2023-01-30T05:53:20.839Z,37.52
2023-01-30T05:55:54.668Z,37.56
2023-01-30T05:58:22.126Z,37.63
2023-01-30T06:00:49.291Z,37.59
2023-01-30T06:03:16.711Z,37.89
2023-01-30T06:05:43.860Z,38.01
2023-01-30T06:08:11.011Z,37.54
2023-01-30T06:10:38.476Z,37.98
2023-01-30T06:13:05.618Z,37.64
2023-01-30T06:15:32.897Z,37.42
2023-01-30T06:18:00.436Z,37.18
2023-01-30T06:20:27.639Z,38.06
2023-01-30T06:22:54.781Z,37.93
2023-01-30T06:25:22.197Z,38.01
2023-01-30T06:27:49.725Z,38.11
2023-01-30T06:30:16.963Z,38.22
2023-01-30T06:32:44.483Z,38.85
2023-01-30T06:35:11.635Z,38.62
2023-01-30T06:37:38.777Z,39.12
2023-01-30T06:40:09.485Z,38.83
2023-01-30T06:42:36.634Z,38.72
2023-01-30T06:45:03.963Z,38.58
2023-01-30T06:47:31.374Z,38.83
2023-01-30T06:49:58.539Z,38.80
2023-01-30T06:52:25.961Z,38.82
2023-01-30T06:54:53.403Z,39.25
2023-01-30T06:57:20.544Z,39.13
2023-01-30T06:59:47.678Z,39.01
2023-01-30T07:02:15.193Z,40.28
2023-01-30T07:04:42.610Z,40.53
2023-01-30T07:07:09.750Z,41.95
2023-01-30T07:09:37.203Z,42.03
2023-01-30T07:12:04.391Z,42.92
2023-01-30T07:14:31.531Z,43.59
2023-01-30T07:16:59.000Z,43.77
2023-01-30T07:19:26.199Z,43.37
2023-01-30T07:21:53.608Z,43.44
2023-01-30T07:24:21.044Z,45.75
2023-01-30T07:26:48.602Z,43.84
2023-01-30T07:29:15.759Z,44.11
2023-01-30T07:31:43.896Z,44.18
2023-01-30T07:34:11.312Z,43.65
2023-01-30T07:36:39.176Z,44.54
2023-01-30T07:39:46.595Z,47.67
2023-01-30T07:42:13.739Z,45.43
2023-01-30T07:44:41.187Z,44.69
2023-01-30T07:47:08.411Z,44.22
2023-01-30T07:49:35.596Z,45.19
2023-01-30T07:52:03.060Z,42.98
2023-01-30T07:54:30.380Z,41.99
2023-01-30T07:56:57.538Z,42.92
2023-01-30T07:59:25.050Z,44.22
2023-01-30T08:01:52.251Z,43.21
2023-01-30T08:04:19.732Z,43.19
2023-01-30T08:06:47.142Z,44.31
2023-01-30T08:09:14.468Z,44.05
2023-01-30T08:11:42.098Z,43.24
2023-01-30T08:14:09.252Z,42.84
2023-01-30T08:16:37.121Z,42.37
2023-01-30T08:19:05.180Z,42.39
2023-01-30T08:21:32.525Z,41.19
2023-01-30T08:24:01.200Z,41.20
2023-01-30T08:26:28.766Z,40.69
2023-01-30T08:28:56.109Z,41.95
2023-01-30T08:31:23.492Z,42.03
2023-01-30T08:33:50.997Z,41.43
2023-01-30T08:36:20.905Z,41.44
2023-01-30T08:38:48.084Z,40.07
2023-01-30T08:41:15.525Z,41.98
2023-01-30T08:43:42.685Z,42.57
2023-01-30T08:46:09.898Z,43.92
2023-01-30T08:48:49.608Z,43.73
2023-01-30T08:51:17.454Z,43.51
2023-01-30T08:53:46.036Z,43.51
2023-01-30T08:56:13.620Z,43.52
2023-01-30T08:58:40.944Z,44.58
2023-01-30T09:01:08.422Z,44.00
2023-01-30T09:03:38.026Z,44.56
2023-01-30T09:06:05.319Z,44.99
2023-01-30T09:08:32.777Z,44.99
2023-01-30T09:11:04.211Z,44.06
2023-01-30T09:13:31.493Z,43.44
2023-01-30T09:15:59.340Z,45.41
2023-01-30T09:18:26.503Z,43.63
2023-01-30T09:20:53.948Z,43.83
2023-01-30T09:23:21.419Z,44.80
2023-01-30T09:25:48.556Z,43.96
2023-01-30T09:28:15.683Z,43.42
2023-01-30T09:30:43.447Z,45.68
2023-01-30T09:33:10.674Z,44.15
2023-01-30T09:35:37.838Z,43.47
2023-01-30T09:38:05.761Z,43.25
2023-01-30T09:40:33.129Z,44.53
2023-01-30T09:43:03.437Z,46.18
2023-01-30T09:45:30.840Z,46.55
2023-01-30T09:48:12.103Z,46.30
2023-01-30T09:50:45.181Z,45.85
2023-01-30T09:53:20.731Z,47.26
2023-01-30T09:55:48.285Z,45.98
2023-01-30T09:58:22.532Z,44.95
2023-01-30T10:00:51.891Z,44.53
2023-01-30T10:03:20.216Z,44.65
2023-01-30T10:05:53.818Z,43.51
2023-01-30T10:08:27.171Z,44.02
2023-01-30T10:11:10.708Z,43.95
2023-01-30T10:13:42.636Z,46.36
2023-01-30T10:16:09.920Z,45.17
2023-01-30T10:18:46.348Z,44.79
2023-01-30T10:21:22.717Z,44.48
2023-01-30T10:23:49.806Z,44.98
2023-01-30T10:26:20.028Z,43.95
2023-01-30T10:29:06.658Z,43.82
2023-01-30T10:31:48.572Z,45.12
2023-01-30T10:34:21.925Z,45.65
2023-01-30T10:36:58.347Z,44.83
2023-01-30T10:39:29.967Z,45.89
2023-01-30T10:42:07.002Z,46.38
2023-01-30T10:44:34.637Z,46.38
2023-01-30T10:47:22.945Z,46.56
2023-01-30T10:49:51.879Z,47.14
2023-01-30T10:52:38.094Z,46.13
2023-01-30T10:55:14.711Z,46.18
2023-01-30T10:57:53.205Z,45.44
2023-01-30T11:00:49.720Z,45.41
2023-01-30T11:03:17.295Z,46.09
2023-01-30T11:05:53.460Z,44.91
2023-01-30T11:08:23.717Z,44.98
2023-01-30T11:10:51.276Z,46.30
2023-01-30T11:13:19.609Z,47.52
2023-01-30T11:15:48.548Z,48.74
2023-01-30T11:18:58.240Z,47.01
2023-01-30T11:21:07.873Z,46.15
2023-01-30T11:23:36.238Z,46.28
2023-01-30T11:26:11.225Z,45.80
2023-01-30T11:28:41.290Z,46.74
2023-01-30T11:31:28.184Z,45.86
2023-01-30T11:34:06.485Z,46.36
2023-01-30T11:36:34.861Z,45.78
2023-01-30T11:39:03.738Z,45.80
2023-01-30T11:41:31.234Z,44.58
2023-01-30T11:44:02.797Z,45.34
2023-01-30T11:46:31.167Z,45.20
2023-01-30T11:49:03.597Z,45.26
2023-01-30T11:51:47.079Z,45.90
2023-01-30T11:54:21.537Z,45.92
2023-01-30T11:56:49.462Z,48.67
2023-01-30T11:59:19.872Z,46.38
2023-01-30T12:01:47.097Z,45.76
2023-01-30T12:04:14.724Z,46.10
2023-01-30T12:06:42.777Z,45.42
2023-01-30T12:09:28.455Z,43.91
2023-01-30T12:11:56.031Z,44.88
2023-01-30T12:14:35.683Z,45.11
2023-01-30T12:17:12.336Z,43.62
2023-01-30T12:19:53.859Z,44.83
2023-01-30T12:22:40.066Z,44.54
2023-01-30T12:25:21.090Z,44.54
2023-01-30T12:28:03.665Z,45.51
2023-01-30T12:30:52.030Z,43.94
2023-01-30T12:33:19.682Z,45.96
2023-01-30T12:35:47.173Z,44.45
2023-01-30T12:38:37.623Z,45.67
2023-01-30T12:41:08.161Z,43.46
2023-01-30T12:43:35.282Z,44.24
2023-01-30T12:46:02.440Z,43.09
2023-01-30T12:51:35.011Z,44.42
2023-01-30T12:54:21.348Z,43.10
2023-01-30T12:56:57.021Z,43.46
2023-01-30T12:59:39.262Z,43.05
2023-01-30T13:02:21.761Z,43.94
2023-01-30T13:05:04.029Z,43.11
2023-01-30T13:07:40.880Z,42.91
2023-01-30T13:10:10.952Z,43.05
2023-01-30T13:12:41.171Z,44.83
2023-01-30T13:15:27.458Z,43.27
2023-01-30T13:18:15.251Z,44.91
2023-01-30T13:20:42.654Z,44.45
2023-01-30T13:23:09.794Z,44.28
2023-01-30T13:25:56.282Z,44.67
2023-01-30T13:28:28.262Z,45.61
2023-01-30T13:30:55.531Z,43.71
2023-01-30T13:33:24.029Z,43.54
2023-01-30T13:35:52.877Z,43.93
2023-01-30T13:38:21.295Z,44.07
2023-01-30T13:40:48.967Z,44.10
2023-01-30T13:43:20.019Z,43.70
2023-01-30T13:45:47.739Z,44.12
2023-01-30T13:48:21.184Z,43.39
2023-01-30T13:50:48.560Z,44.40
2023-01-30T13:53:18.867Z,43.38
2023-01-30T13:55:49.395Z,43.33
2023-01-30T13:58:44.352Z,43.05
2023-01-30T14:01:12.642Z,44.18
2023-01-30T14:03:40.865Z,44.38
2023-01-30T14:06:12.251Z,44.29
2023-01-30T14:08:41.527Z,43.84
2023-01-30T14:11:31.063Z,43.75
2023-01-30T14:14:02.457Z,45.32
2023-01-30T14:17:02.287Z,44.10
2023-01-30T14:19:29.739Z,43.20
2023-01-30T14:21:57.381Z,42.75
2023-01-30T14:24:25.084Z,44.33
2023-01-30T14:26:58.253Z,43.84
2023-01-30T14:29:37.293Z,43.35
2023-01-30T14:32:19.213Z,43.24
2023-01-30T14:34:46.444Z,43.85
2023-01-30T14:37:43.084Z,44.32
2023-01-30T14:40:22.614Z,42.94
2023-01-30T14:43:16.287Z,43.86
2023-01-30T14:45:52.636Z,41.62
2023-01-30T14:48:39.006Z,43.16
2023-01-30T14:51:21.338Z,43.30
2023-01-30T14:53:51.649Z,42.68
2023-01-30T14:56:18.866Z,42.58
2023-01-30T14:58:56.855Z,43.09
2023-01-30T15:01:24.295Z,42.51
2023-01-30T15:03:51.446Z,44.13
2023-01-30T15:06:19.825Z,42.90
2023-01-30T15:08:47.586Z,42.92
2023-01-30T15:11:19.409Z,42.78
2023-01-30T15:13:49.822Z,42.80
2023-01-30T15:16:29.405Z,43.93
2023-01-30T15:19:03.960Z,42.54
2023-01-30T15:21:49.882Z,43.19
2023-01-30T15:24:35.669Z,43.18
2023-01-30T15:27:07.505Z,42.27
2023-01-30T15:29:34.903Z,42.26
2023-01-30T15:32:03.118Z,42.01
2023-01-30T15:34:31.054Z,42.11
2023-01-30T15:36:58.587Z,42.40
2023-01-30T15:39:26.801Z,44.16
2023-01-30T15:41:57.195Z,43.31
2023-01-30T15:44:24.639Z,42.42
2023-01-30T15:46:51.759Z,42.86
2023-01-30T15:49:37.433Z,42.41
2023-01-30T15:52:05.277Z,42.22
2023-01-30T15:54:32.552Z,44.87
2023-01-30T15:57:00.199Z,47.15
2023-01-30T15:59:29.424Z,46.25
2023-01-30T16:02:03.526Z,47.08
2023-01-30T16:04:31.131Z,45.12
2023-01-30T16:06:58.284Z,45.14
2023-01-30T16:09:25.751Z,45.72
2023-01-30T16:11:53.339Z,45.21
2023-01-30T16:14:21.547Z,47.01
2023-01-30T16:16:48.945Z,46.05
2023-01-30T16:19:19.538Z,45.69
2023-01-30T16:21:48.055Z,47.27
2023-01-30T16:24:18.864Z,46.96
2023-01-30T16:26:46.945Z,46.33
2023-01-30T16:29:15.323Z,45.74
2023-01-30T16:31:43.275Z,46.85
2023-01-30T16:34:30.383Z,45.54
2023-01-30T16:36:59.554Z,47.16
2023-01-30T16:39:34.317Z,49.66
2023-01-30T16:42:02.524Z,52.59
2023-01-30T16:44:31.167Z,53.07
2023-01-30T16:47:07.144Z,55.56
2023-01-30T16:49:35.463Z,54.89
2023-01-30T16:52:02.597Z,51.73
2023-01-30T16:54:30.552Z,50.58
2023-01-30T16:56:58.773Z,51.55
2023-01-30T16:59:33.511Z,54.53
2023-01-30T17:02:02.169Z,54.47
2023-01-30T17:04:30.441Z,55.96
2023-01-30T17:07:00.458Z,53.23
2023-01-30T17:09:34.226Z,55.71
2023-01-30T17:12:01.702Z,55.49
2023-01-30T17:14:32.918Z,53.19
2023-01-30T17:17:07.710Z,52.78
2023-01-30T17:19:35.731Z,52.85
2023-01-30T17:22:04.253Z,55.26
2023-01-30T17:24:32.319Z,55.79
2023-01-30T17:27:01.979Z,54.85
2023-01-30T17:29:42.470Z,52.13
2023-01-30T17:32:12.190Z,52.70
2023-01-30T17:34:41.375Z,53.75
2023-01-30T17:37:10.852Z,56.82
2023-01-30T17:39:39.190Z,57.76
2023-01-30T17:42:10.947Z,54.87
2023-01-30T17:44:39.486Z,52.18
2023-01-30T17:47:08.475Z,53.00
2023-01-30T17:49:35.776Z,53.61
2023-01-30T17:52:03.542Z,52.55
2023-01-30T17:54:32.215Z,53.28
2023-01-30T17:57:01.512Z,53.95
2023-01-30T17:59:30.190Z,54.77
2023-01-30T18:01:57.670Z,50.04
2023-01-30T18:04:26.070Z,52.99
2023-01-30T18:06:57.379Z,51.75
2023-01-30T18:09:27.320Z,51.09
2023-01-30T18:11:54.932Z,50.34
2023-01-30T18:14:23.768Z,49.56
2023-01-30T18:16:51.957Z,48.78
2023-01-30T18:19:24.368Z,47.09
2023-01-30T18:21:52.852Z,47.14
2023-01-30T18:24:20.789Z,46.73
2023-01-30T18:26:48.809Z,46.24
2023-01-30T18:29:17.385Z,45.57
2023-01-30T18:31:45.363Z,45.07
2023-01-30T18:34:13.825Z,45.13
2023-01-30T18:36:42.351Z,46.97
2023-01-30T18:39:11.791Z,45.86
2023-01-30T18:41:40.454Z,49.50
2023-01-30T18:44:11.207Z,52.11
2023-01-30T18:46:40.574Z,54.21
2023-01-30T18:49:09.273Z,51.55
2023-01-30T18:51:39.018Z,52.65
2023-01-30T18:54:10.056Z,53.92
2023-01-30T18:56:39.298Z,52.87
2023-01-30T18:59:07.925Z,51.53
2023-01-30T19:01:38.469Z,50.85
2023-01-30T19:04:08.061Z,51.37
2023-01-30T19:06:40.316Z,50.72
2023-01-30T19:09:09.214Z,50.66
2023-01-30T19:11:56.110Z,49.22
2023-01-30T19:14:24.891Z,49.71
2023-01-30T19:16:53.172Z,49.49
2023-01-30T19:19:21.530Z,52.14
2023-01-30T19:21:53.343Z,52.52
2023-01-30T19:24:22.405Z,51.22
2023-01-30T19:26:51.461Z,50.82
2023-01-30T19:29:19.807Z,53.75
2023-01-30T19:31:49.919Z,50.94
2023-01-30T19:34:19.850Z,53.80
2023-01-30T19:36:48.218Z,54.65
2023-01-30T19:39:15.821Z,53.83
2023-01-30T19:41:44.395Z,53.53
2023-01-30T19:44:13.008Z,51.34
2023-01-30T19:46:40.912Z,51.06
2023-01-30T19:49:10.793Z,52.78
2023-01-30T19:51:38.967Z,53.12
2023-01-30T19:54:09.954Z,52.58
2023-01-30T19:56:41.623Z,50.96
2023-01-30T19:59:11.877Z,50.91
2023-01-30T20:01:41.217Z,49.64
2023-01-30T20:04:10.352Z,49.02
2023-01-30T20:06:39.020Z,48.76
2023-01-30T20:09:07.970Z,50.36
2023-01-30T20:11:39.414Z,48.64
2023-01-30T20:14:10.904Z,49.61
2023-01-30T20:16:40.094Z,48.67
2023-01-30T20:19:09.290Z,47.86
2023-01-30T20:21:37.725Z,49.18
2023-01-30T20:24:07.596Z,46.84
2023-01-30T20:26:37.655Z,46.64
2023-01-30T20:29:06.230Z,45.45
2023-01-30T20:31:35.745Z,45.50
2023-01-30T20:34:04.598Z,46.35
2023-01-30T20:36:32.730Z,45.99
2023-01-30T20:39:04.581Z,44.22
2023-01-30T20:41:33.985Z,43.73
2023-01-30T20:44:02.443Z,44.15
2023-01-30T20:46:32.345Z,46.42
2023-01-30T20:49:02.163Z,49.68
2023-01-30T20:51:35.157Z,48.68
2023-01-30T20:54:05.418Z,46.96
2023-01-30T20:56:35.171Z,48.13
2023-01-30T20:59:05.036Z,49.15
2023-01-30T21:01:32.753Z,49.75
2023-01-30T21:04:04.437Z,50.46
2023-01-30T21:06:42.777Z,48.90
2023-01-30T21:09:18.058Z,49.20
2023-01-30T21:11:46.238Z,48.15
2023-01-30T21:14:16.618Z,48.16
2023-01-30T21:16:46.051Z,50.43
2023-01-30T21:19:16.162Z,51.04
2023-01-30T21:21:46.966Z,55.05
2023-01-30T21:24:15.205Z,52.84
2023-01-30T21:26:46.107Z,54.19
2023-01-30T21:29:14.630Z,55.73
2023-01-30T21:31:43.766Z,58.29
2023-01-30T21:34:11.682Z,59.02
2023-01-30T21:36:39.310Z,56.81
2023-01-30T21:39:25.896Z,57.58
2023-01-30T21:42:13.743Z,55.53
2023-01-30T21:44:41.470Z,54.47
2023-01-30T21:47:09.237Z,54.65
2023-01-30T21:49:40.641Z,56.43
2023-01-30T21:52:08.628Z,54.82
2023-01-30T21:54:36.440Z,55.26
2023-01-30T21:57:03.845Z,53.09
2023-01-30T21:59:31.950Z,52.79
2023-01-30T22:01:59.114Z,53.20
2023-01-30T22:04:26.611Z,51.75
2023-01-30T22:06:53.758Z,54.95
2023-01-30T22:09:20.928Z,54.22
2023-01-30T22:11:51.151Z,53.70
2023-01-30T22:14:18.322Z,53.48
2023-01-30T22:16:45.446Z,51.47
2023-01-30T22:19:14.279Z,51.14
2023-01-30T22:21:41.504Z,52.29
2023-01-30T22:24:08.986Z,53.98
2023-01-30T22:26:36.790Z,52.22
2023-01-30T22:29:04.646Z,53.07
2023-01-30T22:31:34.666Z,53.70
2023-01-30T22:34:02.596Z,53.63
2023-01-30T22:36:30.392Z,56.36
2023-01-30T22:38:57.544Z,52.47
2023-01-30T22:41:25.750Z,54.06
2023-01-30T22:43:55.550Z,53.38
2023-01-30T22:46:23.611Z,55.48
2023-01-30T22:48:51.060Z,54.48
2023-01-30T22:51:19.293Z,53.78
2023-01-30T22:53:47.464Z,53.50
2023-01-30T22:56:15.822Z,51.71
2023-01-30T22:58:43.453Z,53.95
2023-01-30T23:01:14.768Z,51.91
2023-01-30T23:03:43.240Z,51.02
2023-01-30T23:06:11.479Z,51.03
2023-01-30T23:08:39.313Z,53.98
2023-01-30T23:11:08.397Z,52.25
2023-01-30T23:13:35.719Z,50.86
2023-01-30T23:16:04.330Z,51.07
2023-01-30T23:18:50.590Z,50.27
2023-01-30T23:21:17.764Z,52.59
2023-01-30T23:23:45.634Z,52.84
2023-01-30T23:26:12.859Z,52.69
2023-01-30T23:28:40.314Z,51.64
2023-01-30T23:31:11.602Z,53.26
2023-01-30T23:33:38.928Z,53.37
2023-01-30T23:36:07.084Z,55.84
2023-01-30T23:38:34.516Z,59.09
2023-01-30T23:41:27.730Z,58.96
2023-01-30T23:43:55.671Z,59.41
2023-01-30T23:46:26.969Z,59.83
2023-01-30T23:48:55.562Z,63.13
2023-01-30T23:51:23.943Z,61.29
2023-01-30T23:53:51.527Z,61.83
2023-01-30T23:56:19.535Z,60.77
2023-01-30T23:58:47.095Z,60.68
